sensor_id;sensor_type;location;lat;lon;timestamp;pressure;altitude;pressure_sealevel;temperature;humidity
75747;BME280;70632;52.232;21.038;2024-02-21T05:46:32;100560.66;;;5.24;100.00
75747;BME280;70632;52.232;21.038;2024-02-21T05:48:58;100550.75;;;5.24;100.00
75747;BME280;70632;52.232;21.038;2024-02-21T05:51:24;100552.66;;;5.22;100.00
75747;BME280;70632;52.232;21.038;2024-02-21T05:53:49;100558.81;;;5.24;100.00
75747;BME280;70632;52.232;21.038;2024-02-21T05:56:15;100554.50;;;5.22;100.00
75747;BME280;70632;52.232;21.038;2024-02-21T05:58:42;100541.41;;;5.32;100.00
75747;BME280;70632;52.232;21.038;2024-02-21T06:01:08;100538.28;;;5.23;100.00
75747;BME280;70632;52.232;21.038;2024-02-21T06:03:34;100546.75;;;5.16;100.00
75747;BME280;70632;52.232;21.038;2024-02-21T06:06:00;100539.47;;;5.18;100.00
75747;BME280;70632;52.232;21.038;2024-02-21T06:08:26;100542.25;;;5.16;100.00
75747;BME280;70632;52.232;21.038;2024-02-21T06:10:52;100542.97;;;5.20;100.00
75747;BME280;70632;52.232;21.038;2024-02-21T06:13:28;100537.94;;;5.30;100.00
75747;BME280;70632;52.232;21.038;2024-02-21T06:15:54;100531.72;;;5.29;100.00
75747;BME280;70632;52.232;21.038;2024-02-21T06:18:20;100538.03;;;5.28;100.00
75747;BME280;70632;52.232;21.038;2024-02-21T06:20:47;100536.75;;;5.35;100.00
75747;BME280;70632;52.232;21.038;2024-02-21T06:23:16;100531.25;;;5.37;100.00
75747;BME280;70632;52.232;21.038;2024-02-21T06:25:44;100533.59;;;5.43;100.00
75747;BME280;70632;52.232;21.038;2024-02-21T06:28:11;100538.91;;;5.44;100.00
75747;BME280;70632;52.232;21.038;2024-02-21T06:30:37;100541.59;;;5.44;100.00
75747;BME280;70632;52.232;21.038;2024-02-21T06:33:03;100532.75;;;5.42;100.00
75747;BME280;70632;52.232;21.038;2024-02-21T06:35:29;100531.19;;;5.38;100.00
75747;BME280;70632;52.232;21.038;2024-02-21T06:37:54;100531.88;;;5.42;100.00
75747;BME280;70632;52.232;21.038;2024-02-21T06:40:22;100537.59;;;5.36;100.00
75747;BME280;70632;52.232;21.038;2024-02-21T06:42:48;100538.19;;;5.41;100.00
75747;BME280;70632;52.232;21.038;2024-02-21T06:45:14;100543.50;;;5.42;100.00
75747;BME280;70632;52.232;21.038;2024-02-21T06:47:40;100546.09;;;5.44;100.00
75747;BME280;70632;52.232;21.038;2024-02-21T06:50:07;100544.34;;;5.43;100.00
75747;BME280;70632;52.232;21.038;2024-02-21T06:52:32;100542.03;;;5.53;100.00
75747;BME280;70632;52.232;21.038;2024-02-21T06:54:58;100547.94;;;5.43;100.00
75747;BME280;70632;52.232;21.038;2024-02-21T06:57:24;100548.72;;;5.46;100.00
75747;BME280;70632;52.232;21.038;2024-02-21T06:59:50;100551.06;;;5.52;100.00
75747;BME280;70632;52.232;21.038;2024-02-21T07:02:15;100555.53;;;5.51;100.00
75747;BME280;70632;52.232;21.038;2024-02-21T07:04:41;100552.69;;;5.54;99.84
75747;BME280;70632;52.232;21.038;2024-02-21T07:07:07;100548.97;;;5.57;99.97
75747;BME280;70632;52.232;21.038;2024-02-21T07:09:33;100548.88;;;5.58;99.63
75747;BME280;70632;52.232;21.038;2024-02-21T07:11:59;100546.28;;;5.57;99.84
75747;BME280;70632;52.232;21.038;2024-02-21T07:14:25;100542.81;;;5.55;100.00
75747;BME280;70632;52.232;21.038;2024-02-21T07:16:51;100545.34;;;5.58;99.75
75747;BME280;70632;52.232;21.038;2024-02-21T07:19:17;100542.88;;;5.69;99.11
75747;BME280;70632;52.232;21.038;2024-02-21T07:21:43;100541.41;;;5.63;99.50
75747;BME280;70632;52.232;21.038;2024-02-21T07:24:09;100540.38;;;5.66;99.28
75747;BME280;70632;52.232;21.038;2024-02-21T07:26:34;100555.47;;;5.69;99.03
75747;BME280;70632;52.232;21.038;2024-02-21T07:29:00;100536.38;;;5.73;98.92
75747;BME280;70632;52.232;21.038;2024-02-21T07:31:26;100533.75;;;5.72;98.88
75747;BME280;70632;52.232;21.038;2024-02-21T07:33:52;100527.44;;;5.73;98.59
75747;BME280;70632;52.232;21.038;2024-02-21T07:36:28;100529.84;;;5.77;98.77
75747;BME280;70632;52.232;21.038;2024-02-21T07:38:54;100528.13;;;5.76;98.90
75747;BME280;70632;52.232;21.038;2024-02-21T07:41:19;100529.78;;;5.79;98.60
75747;BME280;70632;52.232;21.038;2024-02-21T07:43:45;100515.19;;;5.83;98.03
75747;BME280;70632;52.232;21.038;2024-02-21T07:46:11;100525.75;;;5.86;98.28
75747;BME280;70632;52.232;21.038;2024-02-21T07:48:37;100520.78;;;5.94;99.01
75747;BME280;70632;52.232;21.038;2024-02-21T07:51:02;100505.22;;;6.01;97.49
75747;BME280;70632;52.232;21.038;2024-02-21T07:53:28;100515.19;;;5.99;97.07
75747;BME280;70632;52.232;21.038;2024-02-21T07:55:54;100506.34;;;5.97;97.47
75747;BME280;70632;52.232;21.038;2024-02-21T07:58:20;100506.94;;;6.02;97.58
75747;BME280;70632;52.232;21.038;2024-02-21T08:00:45;100503.09;;;6.06;98.05
75747;BME280;70632;52.232;21.038;2024-02-21T08:03:11;100500.25;;;6.09;96.79
75747;BME280;70632;52.232;21.038;2024-02-21T08:05:37;100495.44;;;6.14;96.50
75747;BME280;70632;52.232;21.038;2024-02-21T08:08:03;100494.13;;;6.21;96.12
75747;BME280;70632;52.232;21.038;2024-02-21T08:10:29;100494.69;;;6.27;95.97
75747;BME280;70632;52.232;21.038;2024-02-21T08:12:55;100485.56;;;6.29;95.87
75747;BME280;70632;52.232;21.038;2024-02-21T08:15:21;100490.69;;;6.34;95.37
75747;BME280;70632;52.232;21.038;2024-02-21T08:17:50;100483.09;;;6.40;95.10
75747;BME280;70632;52.232;21.038;2024-02-21T08:20:15;100483.09;;;6.40;95.12
75747;BME280;70632;52.232;21.038;2024-02-21T08:22:41;100481.84;;;6.46;95.37
75747;BME280;70632;52.232;21.038;2024-02-21T08:25:07;100477.03;;;6.51;95.24
75747;BME280;70632;52.232;21.038;2024-02-21T08:27:33;100477.88;;;6.52;94.91
75747;BME280;70632;52.232;21.038;2024-02-21T08:29:59;100485.88;;;6.53;95.04
75747;BME280;70632;52.232;21.038;2024-02-21T08:32:25;100478.09;;;6.63;94.48
75747;BME280;70632;52.232;21.038;2024-02-21T08:34:51;100479.25;;;6.59;94.42
75747;BME280;70632;52.232;21.038;2024-02-21T08:37:17;100475.59;;;6.60;94.07
75747;BME280;70632;52.232;21.038;2024-02-21T08:39:42;100477.03;;;6.65;94.27
75747;BME280;70632;52.232;21.038;2024-02-21T08:42:08;100465.59;;;6.62;94.48
75747;BME280;70632;52.232;21.038;2024-02-21T08:44:34;100475.22;;;6.66;93.82
75747;BME280;70632;52.232;21.038;2024-02-21T08:47:00;100476.88;;;6.54;93.98
75747;BME280;70632;52.232;21.038;2024-02-21T08:49:29;100470.88;;;6.49;94.42
75747;BME280;70632;52.232;21.038;2024-02-21T08:51:55;100465.97;;;6.56;94.24
75747;BME280;70632;52.232;21.038;2024-02-21T08:54:20;100461.47;;;6.56;94.71
75747;BME280;70632;52.232;21.038;2024-02-21T08:56:46;100476.66;;;6.72;93.97
75747;BME280;70632;52.232;21.038;2024-02-21T08:59:12;100461.66;;;6.82;93.79
75747;BME280;70632;52.232;21.038;2024-02-21T09:01:38;100462.63;;;6.95;92.75
75747;BME280;70632;52.232;21.038;2024-02-21T09:04:04;100443.22;;;7.03;92.09
75747;BME280;70632;52.232;21.038;2024-02-21T09:06:30;100457.09;;;6.97;91.95
75747;BME280;70632;52.232;21.038;2024-02-21T09:08:58;100449.13;;;6.95;92.46
75747;BME280;70632;52.232;21.038;2024-02-21T09:11:24;100458.00;;;6.97;92.66
75747;BME280;70632;52.232;21.038;2024-02-21T09:13:50;100447.00;;;7.00;92.03
75747;BME280;70632;52.232;21.038;2024-02-21T09:16:16;100447.97;;;6.99;92.45
75747;BME280;70632;52.232;21.038;2024-02-21T09:18:41;100458.53;;;7.02;92.41
75747;BME280;70632;52.232;21.038;2024-02-21T09:21:08;100455.94;;;7.01;92.43
75747;BME280;70632;52.232;21.038;2024-02-21T09:23:33;100455.16;;;6.99;92.89
75747;BME280;70632;52.232;21.038;2024-02-21T09:25:59;100446.63;;;6.92;93.64
75747;BME280;70632;52.232;21.038;2024-02-21T09:28:28;100460.41;;;6.88;95.56
75747;BME280;70632;52.232;21.038;2024-02-21T09:30:54;100445.09;;;6.88;95.48
75747;BME280;70632;52.232;21.038;2024-02-21T09:33:20;100444.69;;;6.94;94.97
75747;BME280;70632;52.232;21.038;2024-02-21T09:35:46;100455.47;;;6.94;95.50
75747;BME280;70632;52.232;21.038;2024-02-21T09:38:12;100456.84;;;6.87;95.66
75747;BME280;70632;52.232;21.038;2024-02-21T09:40:38;100445.31;;;6.85;95.19
75747;BME280;70632;52.232;21.038;2024-02-21T09:43:06;100453.94;;;6.90;94.85
75747;BME280;70632;52.232;21.038;2024-02-21T09:45:35;100445.09;;;6.88;94.94
75747;BME280;70632;52.232;21.038;2024-02-21T09:50:50;100437.97;;;6.87;94.85
75747;BME280;70632;52.232;21.038;2024-02-21T09:53:18;100444.78;;;6.93;95.37
75747;BME280;70632;52.232;21.038;2024-02-21T09:55:45;100440.28;;;6.93;94.73
75747;BME280;70632;52.232;21.038;2024-02-21T09:58:12;100438.72;;;7.03;93.47
75747;BME280;70632;52.232;21.038;2024-02-21T10:00:38;100421.56;;;7.04;93.85
75747;BME280;70632;52.232;21.038;2024-02-21T10:03:04;100427.28;;;7.00;93.75
75747;BME280;70632;52.232;21.038;2024-02-21T10:05:36;100427.06;;;7.03;94.34
75747;BME280;70632;52.232;21.038;2024-02-21T10:08:03;100426.97;;;7.04;93.51
75747;BME280;70632;52.232;21.038;2024-02-21T10:10:29;100419.34;;;7.11;93.90
75747;BME280;70632;52.232;21.038;2024-02-21T10:12:56;100431.00;;;7.12;93.38
75747;BME280;70632;52.232;21.038;2024-02-21T10:15:24;100416.53;;;7.13;93.68
75747;BME280;70632;52.232;21.038;2024-02-21T10:17:58;100414.63;;;7.15;92.05
75747;BME280;70632;52.232;21.038;2024-02-21T10:20:24;100404.50;;;7.18;92.43
75747;BME280;70632;52.232;21.038;2024-02-21T10:23:00;100412.28;;;7.23;92.54
75747;BME280;70632;52.232;21.038;2024-02-21T10:25:27;100415.69;;;7.39;91.73
75747;BME280;70632;52.232;21.038;2024-02-21T10:27:53;100416.56;;;7.40;91.18
75747;BME280;70632;52.232;21.038;2024-02-21T10:30:19;100391.75;;;7.35;90.74
75747;BME280;70632;52.232;21.038;2024-02-21T10:32:50;100395.97;;;7.39;90.88
75747;BME280;70632;52.232;21.038;2024-02-21T10:35:29;100397.56;;;7.41;90.78
75747;BME280;70632;52.232;21.038;2024-02-21T10:37:58;100397.56;;;7.41;91.16
75747;BME280;70632;52.232;21.038;2024-02-21T10:40:26;100397.94;;;7.50;90.67
75747;BME280;70632;52.232;21.038;2024-02-21T10:43:00;100392.97;;;7.56;90.70
75747;BME280;70632;52.232;21.038;2024-02-21T10:45:34;100389.53;;;7.54;91.67
75747;BME280;70632;52.232;21.038;2024-02-21T10:48:11;100392.69;;;7.61;91.13
75747;BME280;70632;52.232;21.038;2024-02-21T10:53:37;100385.44;;;7.49;90.81
75747;BME280;70632;52.232;21.038;2024-02-21T10:56:31;100393.53;;;7.49;91.18
75747;BME280;70632;52.232;21.038;2024-02-21T10:59:05;100389.31;;;7.57;92.12
75747;BME280;70632;52.232;21.038;2024-02-21T11:01:31;100370.13;;;7.62;91.23
75747;BME280;70632;52.232;21.038;2024-02-21T11:04:08;100376.16;;;7.53;90.24
75747;BME280;70632;52.232;21.038;2024-02-21T11:06:36;100366.81;;;7.44;91.43
75747;BME280;70632;52.232;21.038;2024-02-21T11:09:04;100362.09;;;7.48;91.52
75747;BME280;70632;52.232;21.038;2024-02-21T11:11:36;100355.84;;;7.47;91.94
75747;BME280;70632;52.232;21.038;2024-02-21T11:16:38;100358.13;;;7.53;91.44
75747;BME280;70632;52.232;21.038;2024-02-21T11:19:26;100350.13;;;7.52;91.83
75747;BME280;70632;52.232;21.038;2024-02-21T11:21:53;100351.97;;;7.51;91.82
75747;BME280;70632;52.232;21.038;2024-02-21T11:24:30;100347.00;;;7.45;91.95
75747;BME280;70632;52.232;21.038;2024-02-21T11:27:16;100339.44;;;7.50;92.57
75747;BME280;70632;52.232;21.038;2024-02-21T11:30:05;100341.59;;;7.45;91.75
75747;BME280;70632;52.232;21.038;2024-02-21T11:32:31;100335.94;;;7.35;93.31
75747;BME280;70632;52.232;21.038;2024-02-21T11:34:58;100327.31;;;7.30;94.47
75747;BME280;70632;52.232;21.038;2024-02-21T11:37:28;100331.53;;;7.34;94.00
75747;BME280;70632;52.232;21.038;2024-02-21T11:39:57;100335.09;;;7.35;95.15
75747;BME280;70632;52.232;21.038;2024-02-21T11:42:27;100337.13;;;7.31;94.74
75747;BME280;70632;52.232;21.038;2024-02-21T11:44:54;100343.59;;;7.29;95.21
75747;BME280;70632;52.232;21.038;2024-02-21T11:47:24;100333.88;;;7.26;96.76
75747;BME280;70632;52.232;21.038;2024-02-21T11:49:49;100335.06;;;7.22;98.04
75747;BME280;70632;52.232;21.038;2024-02-21T11:52:23;100337.94;;;7.19;98.28
75747;BME280;70632;52.232;21.038;2024-02-21T11:54:54;100328.16;;;7.18;98.54
75747;BME280;70632;52.232;21.038;2024-02-21T11:57:21;100331.03;;;7.15;98.20
75747;BME280;70632;52.232;21.038;2024-02-21T11:59:48;100320.34;;;7.13;99.96
75747;BME280;70632;52.232;21.038;2024-02-21T12:02:15;100319.72;;;7.10;100.00
75747;BME280;70632;52.232;21.038;2024-02-21T12:04:43;100318.13;;;7.20;100.00
75747;BME280;70632;52.232;21.038;2024-02-21T12:07:09;100320.56;;;7.10;100.00
75747;BME280;70632;52.232;21.038;2024-02-21T12:09:35;100316.13;;;7.09;100.00
75747;BME280;70632;52.232;21.038;2024-02-21T12:12:03;100298.53;;;7.03;100.00
75747;BME280;70632;52.232;21.038;2024-02-21T12:14:29;100313.66;;;7.06;100.00
75747;BME280;70632;52.232;21.038;2024-02-21T12:16:56;100305.25;;;7.11;99.22
75747;BME280;70632;52.232;21.038;2024-02-21T12:19:22;100298.13;;;7.10;100.00
75747;BME280;70632;52.232;21.038;2024-02-21T12:21:48;100308.69;;;7.13;99.65
75747;BME280;70632;52.232;21.038;2024-02-21T12:26:50;100302.63;;;7.09;99.43
75747;BME280;70632;52.232;21.038;2024-02-21T12:29:15;100297.03;;;6.99;100.00
75747;BME280;70632;52.232;21.038;2024-02-21T12:31:41;100304.53;;;6.94;100.00
75747;BME280;70632;52.232;21.038;2024-02-21T12:34:07;100305.88;;;7.01;100.00
75747;BME280;70632;52.232;21.038;2024-02-21T12:36:41;100289.97;;;6.97;100.00
75747;BME280;70632;52.232;21.038;2024-02-21T12:39:08;100289.22;;;6.95;100.00
75747;BME280;70632;52.232;21.038;2024-02-21T12:41:35;100280.84;;;6.99;100.00
75747;BME280;70632;52.232;21.038;2024-02-21T12:44:07;100278.91;;;7.01;100.00
75747;BME280;70632;52.232;21.038;2024-02-21T12:46:37;100272.84;;;6.98;100.00
75747;BME280;70632;52.232;21.038;2024-02-21T12:49:03;100270.91;;;7.00;100.00
75747;BME280;70632;52.232;21.038;2024-02-21T12:51:33;100266.28;;;7.02;100.00
75747;BME280;70632;52.232;21.038;2024-02-21T12:54:01;100266.19;;;7.03;100.00
75747;BME280;70632;52.232;21.038;2024-02-21T12:56:30;100260.81;;;7.03;100.00
75747;BME280;70632;52.232;21.038;2024-02-21T12:58:57;100264.69;;;6.99;100.00
75747;BME280;70632;52.232;21.038;2024-02-21T13:01:23;100261.50;;;6.93;100.00
75747;BME280;70632;52.232;21.038;2024-02-21T13:03:48;100286.66;;;6.93;100.00
75747;BME280;70632;52.232;21.038;2024-02-21T13:06:14;100269.19;;;6.99;100.00
75747;BME280;70632;52.232;21.038;2024-02-21T13:08:40;100268.53;;;6.95;100.00
75747;BME280;70632;52.232;21.038;2024-02-21T13:11:06;100263.78;;;6.99;100.00
75747;BME280;70632;52.232;21.038;2024-02-21T13:13:32;100250.22;;;7.00;100.00
75747;BME280;70632;52.232;21.038;2024-02-21T13:15:59;100247.63;;;6.99;100.00
75747;BME280;70632;52.232;21.038;2024-02-21T13:18:24;100254.84;;;6.98;100.00
75747;BME280;70632;52.232;21.038;2024-02-21T13:20:50;100248.59;;;6.98;100.00
75747;BME280;70632;52.232;21.038;2024-02-21T13:23:16;100244.28;;;6.95;100.00
75747;BME280;70632;52.232;21.038;2024-02-21T13:25:43;100241.69;;;6.94;100.00
75747;BME280;70632;52.232;21.038;2024-02-21T13:28:10;100237.91;;;6.96;100.00
75747;BME280;70632;52.232;21.038;2024-02-21T13:30:37;100226.28;;;6.96;100.00
75747;BME280;70632;52.232;21.038;2024-02-21T13:33:02;100231.84;;;6.93;100.00
75747;BME280;70632;52.232;21.038;2024-02-21T13:35:29;100222.38;;;6.87;100.00
75747;BME280;70632;52.232;21.038;2024-02-21T13:37:54;100215.06;;;6.89;100.00
75747;BME280;70632;52.232;21.038;2024-02-21T13:40:20;100211.38;;;6.90;100.00
75747;BME280;70632;52.232;21.038;2024-02-21T13:42:46;100198.56;;;6.94;100.00
75747;BME280;70632;52.232;21.038;2024-02-21T13:45:12;100215.59;;;6.94;100.00
75747;BME280;70632;52.232;21.038;2024-02-21T13:47:37;100213.66;;;6.96;100.00
75747;BME280;70632;52.232;21.038;2024-02-21T13:50:05;100195.19;;;6.90;100.00
75747;BME280;70632;52.232;21.038;2024-02-21T13:52:34;100190.91;;;6.88;100.00
75747;BME280;70632;52.232;21.038;2024-02-21T13:55:00;100188.97;;;6.90;100.00
75747;BME280;70632;52.232;21.038;2024-02-21T13:57:26;100184.66;;;6.87;100.00
75747;BME280;70632;52.232;21.038;2024-02-21T13:59:52;100169.09;;;6.91;100.00
75747;BME280;70632;52.232;21.038;2024-02-21T14:02:18;100179.69;;;6.94;100.00
75747;BME280;70632;52.232;21.038;2024-02-21T14:04:44;100174.97;;;6.97;100.00
75747;BME280;70632;52.232;21.038;2024-02-21T14:07:09;100159.56;;;6.99;100.00
75747;BME280;70632;52.232;21.038;2024-02-21T14:09:35;100160.31;;;7.01;100.00
75747;BME280;70632;52.232;21.038;2024-02-21T14:12:01;100162.44;;;6.96;100.00
75747;BME280;70632;52.232;21.038;2024-02-21T14:14:27;100146.28;;;6.96;100.00
75747;BME280;70632;52.232;21.038;2024-02-21T14:16:53;100161.16;;;7.02;100.00
75747;BME280;70632;52.232;21.038;2024-02-21T14:19:19;100135.63;;;7.08;100.00
75747;BME280;70632;52.232;21.038;2024-02-21T14:21:44;100136.69;;;7.05;100.00
75747;BME280;70632;52.232;21.038;2024-02-21T14:24:11;100136.81;;;7.03;100.00
75747;BME280;70632;52.232;21.038;2024-02-21T14:26:37;100146.06;;;6.99;100.00
75747;BME280;70632;52.232;21.038;2024-02-21T14:29:04;100146.06;;;6.99;100.00
75747;BME280;70632;52.232;21.038;2024-02-21T14:31:33;100149.94;;;6.95;100.00
75747;BME280;70632;52.232;21.038;2024-02-21T14:34:00;100143.47;;;6.98;100.00
75747;BME280;70632;52.232;21.038;2024-02-21T14:36:28;100133.34;;;7.01;100.00
75747;BME280;70632;52.232;21.038;2024-02-21T14:38:54;100170.09;;;6.90;100.00
75747;BME280;70632;52.232;21.038;2024-02-21T14:41:20;100135.16;;;6.88;100.00
75747;BME280;70632;52.232;21.038;2024-02-21T14:43:46;100122.34;;;6.92;100.00
75747;BME280;70632;52.232;21.038;2024-02-21T14:46:12;100124.38;;;6.88;100.00
75747;BME280;70632;52.232;21.038;2024-02-21T14:48:38;100126.66;;;6.94;100.00
75747;BME280;70632;52.232;21.038;2024-02-21T14:51:04;100124.94;;;6.93;100.00
75747;BME280;70632;52.232;21.038;2024-02-21T14:53:30;100130.53;;;6.90;100.00
75747;BME280;70632;52.232;21.038;2024-02-21T14:55:59;100108.09;;;6.90;100.00
75747;BME280;70632;52.232;21.038;2024-02-21T14:58:25;100098.41;;;6.87;100.00
75747;BME280;70632;52.232;21.038;2024-02-21T15:00:50;100107.88;;;6.93;100.00
75747;BME280;70632;52.232;21.038;2024-02-21T15:03:16;100108.88;;;6.92;100.00
75747;BME280;70632;52.232;21.038;2024-02-21T15:05:46;100107.69;;;6.96;99.73
75747;BME280;70632;52.232;21.038;2024-02-21T15:08:13;100121.47;;;6.91;98.52
75747;BME280;70632;52.232;21.038;2024-02-21T15:10:43;100129.66;;;6.90;98.74
75747;BME280;70632;52.232;21.038;2024-02-21T15:13:08;100129.75;;;6.88;99.49
75747;BME280;70632;52.232;21.038;2024-02-21T15:15:34;100117.81;;;6.92;99.70
75747;BME280;70632;52.232;21.038;2024-02-21T15:18:00;100105.41;;;6.90;98.44
75747;BME280;70632;52.232;21.038;2024-02-21T15:20:26;100115.22;;;6.91;98.55
75747;BME280;70632;52.232;21.038;2024-02-21T15:22:53;100103.56;;;6.90;100.00
75747;BME280;70632;52.232;21.038;2024-02-21T15:25:19;100112.41;;;6.92;99.18
75747;BME280;70632;52.232;21.038;2024-02-21T15:27:45;100118.03;;;6.89;99.75
75747;BME280;70632;52.232;21.038;2024-02-21T15:30:12;100100.78;;;6.92;99.57
75747;BME280;70632;52.232;21.038;2024-02-21T15:32:41;100100.78;;;6.92;98.96
75747;BME280;70632;52.232;21.038;2024-02-21T15:35:09;100101.09;;;6.87;99.92
75747;BME280;70632;52.232;21.038;2024-02-21T15:37:36;100091.28;;;6.86;100.00
75747;BME280;70632;52.232;21.038;2024-02-21T15:40:02;100099.16;;;6.89;99.38
75747;BME280;70632;52.232;21.038;2024-02-21T15:42:29;100088.25;;;6.91;100.00
75747;BME280;70632;52.232;21.038;2024-02-21T15:44:57;100077.38;;;6.92;99.28
75747;BME280;70632;52.232;21.038;2024-02-21T15:47:23;100082.00;;;6.90;99.42
75747;BME280;70632;52.232;21.038;2024-02-21T15:49:50;100075.53;;;6.93;99.76
75747;BME280;70632;52.232;21.038;2024-02-21T15:52:16;100090.31;;;6.87;99.31
75747;BME280;70632;52.232;21.038;2024-02-21T15:54:42;100090.94;;;6.91;99.50
75747;BME280;70632;52.232;21.038;2024-02-21T15:57:07;100081.25;;;6.88;99.04
75747;BME280;70632;52.232;21.038;2024-02-21T15:59:33;100083.63;;;6.93;98.93
75747;BME280;70632;52.232;21.038;2024-02-21T16:01:59;100060.25;;;6.93;99.33
75747;BME280;70632;52.232;21.038;2024-02-21T16:04:26;100074.91;;;6.89;99.51
75747;BME280;70632;52.232;21.038;2024-02-21T16:06:54;100072.97;;;6.91;99.24
75747;BME280;70632;52.232;21.038;2024-02-21T16:09:20;100084.59;;;6.92;99.18
75747;BME280;70632;52.232;21.038;2024-02-21T16:11:46;100094.53;;;6.91;99.28
75747;BME280;70632;52.232;21.038;2024-02-21T16:14:13;100072.84;;;6.93;98.73
75747;BME280;70632;52.232;21.038;2024-02-21T16:16:39;100075.66;;;6.91;99.58
75747;BME280;70632;52.232;21.038;2024-02-21T16:19:08;100062.94;;;6.93;98.73
75747;BME280;70632;52.232;21.038;2024-02-21T16:21:34;100082.00;;;6.90;98.68
75747;BME280;70632;52.232;21.038;2024-02-21T16:24:01;100071.88;;;6.94;99.26
75747;BME280;70632;52.232;21.038;2024-02-21T16:26:27;100068.44;;;6.92;99.26
75747;BME280;70632;52.232;21.038;2024-02-21T16:28:53;100071.47;;;6.87;99.11
75747;BME280;70632;52.232;21.038;2024-02-21T16:31:18;100075.97;;;6.87;99.03
75747;BME280;70632;52.232;21.038;2024-02-21T16:33:44;100083.84;;;6.90;100.00
75747;BME280;70632;52.232;21.038;2024-02-21T16:36:23;100103.66;;;6.89;100.00
75747;BME280;70632;52.232;21.038;2024-02-21T16:38:52;100069.94;;;6.83;100.00
75747;BME280;70632;52.232;21.038;2024-02-21T16:41:21;100098.06;;;6.79;100.00
75747;BME280;70632;52.232;21.038;2024-02-21T16:43:47;100093.44;;;6.81;100.00
75747;BME280;70632;52.232;21.038;2024-02-21T16:46:14;100078.31;;;6.78;100.00
75747;BME280;70632;52.232;21.038;2024-02-21T16:48:41;100073.16;;;6.75;100.00
75747;BME280;70632;52.232;21.038;2024-02-21T16:51:07;100077.06;;;6.84;100.00
75747;BME280;70632;52.232;21.038;2024-02-21T16:53:34;100077.28;;;6.81;100.00
75747;BME280;70632;52.232;21.038;2024-02-21T16:56:00;100086.22;;;6.81;100.00
75747;BME280;70632;52.232;21.038;2024-02-21T16:58:27;100083.72;;;6.78;100.00
75747;BME280;70632;52.232;21.038;2024-02-21T17:00:56;100063.47;;;6.73;100.00
75747;BME280;70632;52.232;21.038;2024-02-21T17:03:21;100072.09;;;6.78;100.00
75747;BME280;70632;52.232;21.038;2024-02-21T17:05:48;100073.28;;;6.74;100.00
75747;BME280;70632;52.232;21.038;2024-02-21T17:08:15;100081.25;;;6.75;100.00
75747;BME280;70632;52.232;21.038;2024-02-21T17:10:41;100076.47;;;6.66;100.00
75747;BME280;70632;52.232;21.038;2024-02-21T17:13:07;100068.72;;;6.61;100.00
75747;BME280;70632;52.232;21.038;2024-02-21T17:15:33;100072.06;;;6.65;100.00
75747;BME280;70632;52.232;21.038;2024-02-21T17:17:58;100066.34;;;6.57;100.00
75747;BME280;70632;52.232;21.038;2024-02-21T17:20:24;100060.22;;;6.55;100.00
75747;BME280;70632;52.232;21.038;2024-02-21T17:22:50;100067.63;;;6.51;100.00
75747;BME280;70632;52.232;21.038;2024-02-21T17:25:16;100051.81;;;6.59;100.00
75747;BME280;70632;52.232;21.038;2024-02-21T17:27:42;100066.13;;;6.60;100.00
75747;BME280;70632;52.232;21.038;2024-02-21T17:30:08;100063.56;;;6.58;100.00
75747;BME280;70632;52.232;21.038;2024-02-21T17:32:34;100071.75;;;6.57;100.00
75747;BME280;70632;52.232;21.038;2024-02-21T17:35:01;100061.16;;;6.54;100.00
75747;BME280;70632;52.232;21.038;2024-02-21T17:37:32;100058.69;;;6.51;100.00
75747;BME280;70632;52.232;21.038;2024-02-21T17:40:03;100047.06;;;6.50;100.00
75747;BME280;70632;52.232;21.038;2024-02-21T17:42:35;100056.66;;;6.54;100.00
75747;BME280;70632;52.232;21.038;2024-02-21T17:45:02;100057.94;;;6.49;100.00
75747;BME280;70632;52.232;21.038;2024-02-21T17:47:32;100057.84;;;6.50;100.00
75747;BME280;70632;52.232;21.038;2024-02-21T17:49:58;100069.16;;;6.55;100.00
75747;BME280;70632;52.232;21.038;2024-02-21T17:52:23;100048.59;;;6.54;100.00
75747;BME280;70632;52.232;21.038;2024-02-21T17:54:50;100045.75;;;6.56;100.00
75747;BME280;70632;52.232;21.038;2024-02-21T17:57:15;100046.94;;;6.52;100.00
75747;BME280;70632;52.232;21.038;2024-02-21T17:59:42;100063.84;;;6.54;100.00
75747;BME280;70632;52.232;21.038;2024-02-21T18:02:08;100054.91;;;6.53;100.00
75747;BME280;70632;52.232;21.038;2024-02-21T18:04:35;100044.25;;;6.52;100.00
75747;BME280;70632;52.232;21.038;2024-02-21T18:07:01;100038.75;;;6.53;100.00
75747;BME280;70632;52.232;21.038;2024-02-21T18:09:29;100052.31;;;6.52;100.00
75747;BME280;70632;52.232;21.038;2024-02-21T18:11:56;100048.88;;;6.50;100.00
75747;BME280;70632;52.232;21.038;2024-02-21T18:14:22;100052.22;;;6.53;100.00
75747;BME280;70632;52.232;21.038;2024-02-21T18:16:47;100029.59;;;6.56;100.00
75747;BME280;70632;52.232;21.038;2024-02-21T18:19:13;100039.50;;;6.55;100.00
75747;BME280;70632;52.232;21.038;2024-02-21T18:21:39;100041.47;;;6.53;100.00
75747;BME280;70632;52.232;21.038;2024-02-21T18:24:05;100032.19;;;6.57;100.00
75747;BME280;70632;52.232;21.038;2024-02-21T18:26:31;100018.97;;;6.54;100.00
75747;BME280;70632;52.232;21.038;2024-02-21T18:28:58;100015.69;;;6.49;100.00
75747;BME280;70632;52.232;21.038;2024-02-21T18:31:25;100026.78;;;6.44;100.00
75747;BME280;70632;52.232;21.038;2024-02-21T18:33:53;100021.41;;;6.44;100.00
75747;BME280;70632;52.232;21.038;2024-02-21T18:36:21;100005.91;;;6.48;100.00
75747;BME280;70632;52.232;21.038;2024-02-21T18:38:47;100019.25;;;6.50;100.00
75747;BME280;70632;52.232;21.038;2024-02-21T18:41:13;99999.88;;;6.57;100.00